Time;durP1;ratioP1;P1;durP2;ratioP2;P2;SDS_P1;SDS_P2;PMS_P1;PMS_P2;Temp;Humidity;BMP_temperature;BMP_pressure;BME280_temperature;BME280_humidity;BME280_pressure;Samples;Min_cycle;Max_cycle;Signal;HPM_P1;HPM_P2
2022/01/06 00:01:05;;;;;;;3.72;1.92;;;22.10;42.80;;;;;;5044614;28;43400;-66
2022/01/06 00:03:34;;;;;;;4.68;1.70;;;22.10;42.80;;;;;;5043322;28;43522;-68
2022/01/06 00:06:06;;;;;;;3.47;1.90;;;22.10;42.80;;;;;;5043020;28;46045;-67
2022/01/06 00:08:35;;;;;;;3.97;2.05;;;22.10;42.80;;;;;;5043678;28;44547;-69
2022/01/06 00:11:05;;;;;;;4.18;1.85;;;22.10;43.00;;;;;;5077157;28;43483;-68
2022/01/06 00:13:44;;;;;;;4.13;1.95;;;22.00;42.80;;;;;;5076754;27;43532;-67
2022/01/06 00:24:12;;;;;;;3.13;1.50;;;22.00;42.80;;;;;;5076763;28;43503;-66
2022/01/06 00:26:41;;;;;;;3.47;1.83;;;22.00;42.80;;;;;;5042740;28;45317;-69
2022/01/06 00:29:08;;;;;;;4.05;1.88;;;22.00;42.90;;;;;;5077181;28;43458;-69
2022/01/06 00:31:36;;;;;;;2.97;1.50;;;21.90;42.90;;;;;;5042666;28;43496;-69
2022/01/06 00:34:05;;;;;;;4.25;1.63;;;21.90;42.90;;;;;;5042013;28;43421;-68
2022/01/06 00:36:33;;;;;;;4.47;1.80;;;21.90;42.90;;;;;;5076348;28;44301;-66
2022/01/06 00:39:01;;;;;;;3.25;1.60;;;22.00;43.00;;;;;;5076775;28;43575;-69
2022/01/06 00:41:28;;;;;;;3.67;1.95;;;21.90;42.90;;;;;;5076036;28;43384;-68
2022/01/06 00:43:56;;;;;;;2.95;1.60;;;21.90;42.90;;;;;;5042554;28;43520;-69
2022/01/06 00:46:23;;;;;;;3.30;1.80;;;21.90;43.00;;;;;;5076372;28;44081;-69
2022/01/06 00:48:51;;;;;;;3.55;1.80;;;21.90;42.90;;;;;;5076596;28;44648;-67
2022/01/06 00:51:18;;;;;;;2.67;1.48;;;21.90;43.00;;;;;;5042915;28;43387;-68
2022/01/06 00:53:45;;;;;;;3.67;1.90;;;21.90;43.00;;;;;;5076520;28;43523;-68
2022/01/06 00:56:13;;;;;;;3.97;1.73;;;21.90;43.00;;;;;;5075990;28;43935;-69
2022/01/06 00:58:41;;;;;;;3.50;1.90;;;21.90;43.10;;;;;;5042841;28;43431;-68
2022/01/06 01:01:08;;;;;;;4.15;1.80;;;21.90;43.00;;;;;;5042293;28;43435;-69
2022/01/06 01:03:36;;;;;;;2.38;1.70;;;21.90;43.00;;;;;;5042602;28;43537;-68
2022/01/06 01:06:04;;;;;;;2.60;1.50;;;21.80;43.00;;;;;;5075298;28;45735;-68
2022/01/06 01:08:33;;;;;;;2.40;1.50;;;21.80;43.00;;;;;;5041794;28;43452;-68
2022/01/06 01:11:00;;;;;;;2.58;1.73;;;21.80;43.00;;;;;;5019877;28;43460;-67
2022/01/06 01:13:28;;;;;;;2.38;1.35;;;21.80;43.70;;;;;;5041964;28;43483;-67
2022/01/06 01:16:05;;;;;;;2.75;1.40;;;21.80;43.10;;;;;;5076020;28;44208;-68
2022/01/06 01:18:33;;;;;;;2.75;1.50;;;21.80;43.10;;;;;;5041629;28;44613;-69
2022/01/06 01:21:01;;;;;;;3.28;1.40;;;21.80;43.10;;;;;;5042528;28;43427;-66
2022/01/06 01:23:28;;;;;;;3.55;1.40;;;21.80;43.10;;;;;;5043272;28;43456;-67
2022/01/06 01:25:56;;;;;;;3.65;1.63;;;21.80;43.20;;;;;;5076093;28;44084;-69
2022/01/06 01:28:32;;;;;;;2.75;1.50;;;21.70;43.10;;;;;;5041414;28;45062;-66
2022/01/06 01:31:19;;;;;;;3.05;1.70;;;21.70;43.10;;;;;;5076333;28;43418;-69
2022/01/06 01:33:47;;;;;;;2.33;1.40;;;21.70;43.20;;;;;;5074814;28;43523;-68
2022/01/06 01:36:15;;;;;;;2.45;1.38;;;21.70;43.20;;;;;;5043413;28;43575;-68
2022/01/06 01:38:43;;;;;;;2.58;1.23;;;21.70;43.20;;;;;;5076568;28;44706;-67
2022/01/06 01:41:10;;;;;;;3.80;1.42;;;21.70;43.20;;;;;;5041938;28;43435;-67
2022/01/06 01:43:39;;;;;;;2.10;1.40;;;21.60;43.20;;;;;;5043593;28;43445;-68
2022/01/06 01:46:12;;;;;;;2.75;1.50;;;21.60;43.20;;;;;;5076793;28;44888;-67
2022/01/06 01:48:45;;;;;;;1.83;1.38;;;21.70;43.30;;;;;;5056612;28;44538;-68
2022/01/06 01:51:13;;;;;;;2.78;1.58;;;21.60;43.20;;;;;;5074994;28;43419;-68
2022/01/06 01:53:40;;;;;;;1.73;0.95;;;21.60;43.30;;;;;;5079366;28;44090;-66
2022/01/06 01:56:10;;;;;;;2.35;1.35;;;21.60;43.30;;;;;;5045557;28;44661;-67
2022/01/06 01:58:38;;;;;;;3.03;1.50;;;21.60;43.40;;;;;;5045325;28;43985;-69
2022/01/06 02:01:06;;;;;;;2.50;1.35;;;21.60;43.30;;;;;;5078912;28;43455;-69
2022/01/06 02:03:33;;;;;;;3.67;1.50;;;21.60;43.30;;;;;;5045173;28;43478;-68
2022/01/06 02:06:01;;;;;;;2.42;1.30;;;21.60;43.30;;;;;;5045084;28;44165;-68
2022/01/06 02:08:30;;;;;;;2.55;1.50;;;21.60;43.30;;;;;;5045505;28;44353;-68
2022/01/06 02:10:58;;;;;;;3.20;1.60;;;21.50;43.20;;;;;;5046459;28;43432;-67
2022/01/06 02:13:28;;;;;;;3.90;1.50;;;21.50;43.20;;;;;;5042252;28;43468;-69
2022/01/06 02:16:01;;;;;;;3.28;1.70;;;21.50;43.20;;;;;;5044859;28;45383;-68
2022/01/06 02:18:29;;;;;;;2.08;1.38;;;21.50;43.10;;;;;;5079090;28;44373;-68
2022/01/06 02:20:57;;;;;;;3.05;1.50;;;21.50;43.20;;;;;;5078488;28;43562;-67
2022/01/06 02:23:24;;;;;;;3.45;1.83;;;21.50;43.20;;;;;;5045000;28;43486;-67
2022/01/06 02:25:52;;;;;;;3.28;1.50;;;21.50;43.30;;;;;;5044533;28;44198;-68
2022/01/06 02:28:22;;;;;;;2.22;1.40;;;21.40;43.20;;;;;;5045154;28;43716;-68
2022/01/06 02:30:51;;;;;;;2.70;1.33;;;21.50;43.30;;;;;;5078776;28;43483;-69
2022/01/06 02:33:19;;;;;;;2.45;1.48;;;21.40;43.30;;;;;;5028382;28;43546;-69
2022/01/06 02:35:48;;;;;;;3.72;1.65;;;21.40;43.30;;;;;;5078181;28;45363;-67
2022/01/06 02:38:17;;;;;;;3.03;1.60;;;21.40;43.30;;;;;;5044994;28;43479;-69
2022/01/06 02:40:46;;;;;;;4.07;1.50;;;21.40;43.30;;;;;;5078580;28;43450;-67
2022/01/06 02:43:18;;;;;;;2.88;1.50;;;21.40;43.30;;;;;;5044749;28;43534;-68
2022/01/06 02:45:46;;;;;;;2.78;1.50;;;21.40;43.30;;;;;;5044394;28;45739;-67
2022/01/06 02:48:14;;;;;;;3.90;1.50;;;21.40;43.30;;;;;;5078403;28;44388;-66
2022/01/06 02:50:49;;;;;;;2.30;1.45;;;21.40;43.30;;;;;;5077576;28;43394;-68
2022/01/06 02:53:18;;;;;;;2.60;1.30;;;21.40;43.30;;;;;;5044314;28;43429;-68
2022/01/06 02:55:51;;;;;;;2.67;1.60;;;21.30;43.30;;;;;;5076912;27;44628;-68
2022/01/06 02:58:38;;;;;;;3.53;1.70;;;21.30;43.30;;;;;;5061446;28;43433;-67
2022/01/06 03:01:05;;;;;;;1.92;1.20;;;21.30;43.30;;;;;;5078135;28;43426;-68
2022/01/06 03:03:33;;;;;;;2.15;1.60;;;21.30;43.30;;;;;;5045467;28;43466;-67
2022/01/06 03:06:00;;;;;;;2.25;1.50;;;21.30;43.30;;;;;;5043933;28;46077;-69
2022/01/06 03:08:28;;;;;;;2.60;1.60;;;21.30;43.40;;;;;;5077415;28;43725;-68
2022/01/06 03:10:57;;;;;;;2.47;1.40;;;21.20;43.30;;;;;;5043838;28;43449;-67
2022/01/06 03:13:25;;;;;;;3.08;1.63;;;21.30;43.30;;;;;;5045710;28;43537;-66
2022/01/06 03:15:52;;;;;;;2.85;1.60;;;21.20;43.30;;;;;;5077775;28;44267;-69
2022/01/06 03:18:20;;;;;;;2.95;1.50;;;21.20;43.30;;;;;;5041444;28;43974;-68
2022/01/06 03:20:47;;;;;;;3.28;1.55;;;21.20;43.30;;;;;;5043872;28;43488;-69
2022/01/06 03:23:15;;;;;;;2.95;1.70;;;21.20;43.30;;;;;;5043487;28;43484;-67
2022/01/06 03:25:43;;;;;;;3.45;1.70;;;21.20;43.30;;;;;;5043823;28;44197;-67
2022/01/06 03:28:11;;;;;;;3.05;1.83;;;21.20;43.40;;;;;;5075664;28;44347;-67
2022/01/06 03:30:39;;;;;;;4.78;1.80;;;21.10;43.30;;;;;;5044057;28;43440;-69
2022/01/06 03:33:06;;;;;;;2.83;1.63;;;21.10;43.40;;;;;;5077522;28;43463;-67
2022/01/06 03:35:34;;;;;;;2.95;1.60;;;21.10;43.40;;;;;;5077625;28;45726;-69
2022/01/06 03:38:01;;;;;;;3.47;1.70;;;21.10;43.40;;;;;;5077696;28;44028;-69
2022/01/06 03:40:29;;;;;;;4.18;1.50;;;21.10;43.50;;;;;;5077659;28;43462;-67
2022/01/06 03:42:56;;;;;;;3.28;1.60;;;21.10;43.40;;;;;;5043548;28;43612;-67
2022/01/06 03:45:23;;;;;;;2.30;1.58;;;21.10;43.50;;;;;;5077456;28;45441;-67
2022/01/06 03:47:51;;;;;;;3.65;1.70;;;21.00;43.40;;;;;;5042288;28;43512;-68
2022/01/06 03:50:19;;;;;;;3.70;1.60;;;21.00;43.40;;;;;;5043633;28;43445;-67
2022/01/06 03:52:46;;;;;;;2.97;1.70;;;21.00;43.50;;;;;;5043121;28;43462;-67
2022/01/06 03:55:16;;;;;;;2.90;1.58;;;21.00;43.40;;;;;;5077524;28;43932;-67
2022/01/06 03:57:44;;;;;;;3.45;1.70;;;21.00;43.40;;;;;;5077382;28;43467;-67
2022/01/06 04:00:14;;;;;;;3.08;1.70;;;21.00;43.40;;;;;;5044889;28;43467;-69
2022/01/06 04:02:43;;;;;;;3.10;1.67;;;21.00;43.40;;;;;;5043310;28;43560;-69
2022/01/06 04:05:11;;;;;;;3.40;1.65;;;21.00;43.50;;;;;;5076768;28;46138;-68
2022/01/06 04:07:40;;;;;;;3.42;1.77;;;21.00;43.50;;;;;;5044193;28;43982;-69
2022/01/06 04:10:09;;;;;;;2.83;1.88;;;21.00;43.50;;;;;;5043205;28;43538;-68
2022/01/06 04:12:38;;;;;;;3.83;1.80;;;20.90;43.40;;;;;;5042218;28;44079;-67
2022/01/06 04:15:11;;;;;;;3.97;1.75;;;20.90;43.50;;;;;;5076082;27;44143;-66
2022/01/06 04:17:39;;;;;;;2.85;1.60;;;20.90;43.50;;;;;;5076686;28;43506;-66
2022/01/06 04:20:07;;;;;;;3.00;1.48;;;20.90;43.50;;;;;;5076973;28;43531;-67
2022/01/06 04:22:36;;;;;;;2.65;1.52;;;20.90;43.50;;;;;;5042518;28;43487;-66
2022/01/06 04:25:04;;;;;;;3.17;1.75;;;20.90;43.50;;;;;;5041991;28;44673;-69
2022/01/06 04:27:32;;;;;;;4.05;1.77;;;20.90;43.40;;;;;;5035261;28;43705;-68
2022/01/06 04:30:01;;;;;;;2.53;1.70;;;20.90;43.50;;;;;;5077434;28;43462;-67
2022/01/06 04:32:28;;;;;;;5.57;1.90;;;20.90;43.50;;;;;;5042954;28;43483;-68
2022/01/06 04:34:55;;;;;;;2.88;1.85;;;20.80;43.50;;;;;;5076338;28;45372;-68
2022/01/06 04:37:24;;;;;;;2.95;1.90;;;20.80;43.50;;;;;;5076248;28;43466;-69
2022/01/06 04:39:52;;;;;;;3.05;1.90;;;20.80;43.50;;;;;;5043415;28;43416;-66
2022/01/06 04:42:19;;;;;;;3.38;1.55;;;20.80;43.50;;;;;;5042684;28;43841;-67
2022/01/06 04:44:46;;;;;;;2.35;1.50;;;20.80;43.50;;;;;;5043108;28;44103;-69
2022/01/06 04:47:14;;;;;;;3.78;1.73;;;20.80;43.50;;;;;;5076258;28;43431;-67
2022/01/06 04:49:41;;;;;;;3.17;1.70;;;20.80;43.50;;;;;;5042849;28;43426;-68
2022/01/06 04:52:09;;;;;;;3.20;1.90;;;20.80;43.50;;;;;;5043680;28;43423;-69
2022/01/06 04:54:36;;;;;;;3.03;1.60;;;20.80;43.50;;;;;;5025633;28;43976;-69
2022/01/06 04:57:04;;;;;;;2.70;1.60;;;20.70;43.50;;;;;;5042271;28;43360;-68
2022/01/06 04:59:32;;;;;;;2.65;1.40;;;20.70;43.50;;;;;;5076840;28;43415;-66
2022/01/06 05:01:59;;;;;;;4.57;1.90;;;20.70;43.50;;;;;;5075951;28;43516;-68
2022/01/06 05:04:27;;;;;;;3.17;1.67;;;20.70;43.40;;;;;;5076031;28;44934;-67
2022/01/06 05:06:54;;;;;;;3.00;1.70;;;20.70;43.40;;;;;;5025976;28;43724;-67
2022/01/06 05:09:22;;;;;;;3.22;1.80;;;20.70;43.50;;;;;;5042739;28;43471;-68
2022/01/06 05:11:49;;;;;;;2.35;1.15;;;20.70;43.50;;;;;;5039603;28;43588;-67
2022/01/06 05:14:17;;;;;;;2.75;1.60;;;20.70;43.50;;;;;;5071592;27;45261;-69
2022/01/06 05:16:44;;;;;;;4.38;1.90;;;20.60;43.50;;;;;;5025416;28;43516;-69
2022/01/06 05:19:12;;;;;;;2.72;1.55;;;20.60;43.50;;;;;;5041528;28;43480;-69
2022/01/06 05:21:39;;;;;;;2.70;1.50;;;20.60;43.50;;;;;;5042100;28;43477;-68
2022/01/06 05:24:12;;;;;;;2.95;1.70;;;20.60;43.50;;;;;;5041540;28;43931;-69
2022/01/06 05:26:41;;;;;;;3.22;1.80;;;20.60;43.50;;;;;;5042082;28;45277;-67
2022/01/06 05:29:10;;;;;;;3.90;1.92;;;20.60;43.50;;;;;;5042135;28;43441;-68
2022/01/06 05:31:38;;;;;;;3.30;1.80;;;20.60;43.50;;;;;;5043383;28;43459;-69
2022/01/06 05:34:06;;;;;;;3.35;1.60;;;20.60;43.60;;;;;;5039922;28;43564;-68
2022/01/06 05:36:38;;;;;;;2.58;1.42;;;20.60;44.30;;;;;;5040235;28;43390;-67
2022/01/06 05:39:06;;;;;;;2.80;1.50;;;20.50;43.60;;;;;;5075742;28;43542;-69
2022/01/06 05:41:34;;;;;;;2.63;1.25;;;20.50;43.60;;;;;;5074248;28;43448;-67
2022/01/06 05:44:02;;;;;;;4.80;1.58;;;20.50;43.60;;;;;;5040150;28;43557;-68
2022/01/06 05:46:30;;;;;;;2.42;1.60;;;20.50;43.60;;;;;;5042220;28;43483;-66
2022/01/06 05:48:57;;;;;;;2.40;1.60;;;20.50;43.60;;;;;;5042223;28;43434;-67
2022/01/06 05:51:24;;;;;;;1.98;1.33;;;20.50;43.60;;;;;;5042011;28;43469;-67
2022/01/06 05:53:53;;;;;;;2.58;1.63;;;20.50;43.60;;;;;;5058383;28;45383;-68
2022/01/06 05:56:22;;;;;;;3.33;1.60;;;20.50;43.60;;;;;;5025130;28;43432;-68
2022/01/06 05:58:49;;;;;;;3.70;1.63;;;20.50;43.60;;;;;;5041387;28;43949;-69
2022/01/06 06:01:17;;;;;;;2.70;1.65;;;20.50;43.70;;;;;;5075790;28;43544;-68
2022/01/06 06:03:45;;;;;;;3.17;1.38;;;20.40;43.60;;;;;;5075327;28;45327;-69
2022/01/06 06:06:12;;;;;;;3.75;1.80;;;20.40;43.60;;;;;;5041446;28;44084;-66
2022/01/06 06:08:39;;;;;;;3.72;1.92;;;20.40;43.60;;;;;;5041840;28;43436;-67
2022/01/06 06:11:07;;;;;;;1.98;1.50;;;20.40;43.70;;;;;;5073855;28;43470;-69
2022/01/06 06:13:35;;;;;;;3.80;2.10;;;20.40;43.70;;;;;;5074416;28;44659;-69
2022/01/06 06:16:02;;;;;;;3.80;1.50;;;20.30;43.70;;;;;;5041327;28;45079;-67
2022/01/06 06:18:33;;;;;;;2.55;1.90;;;20.40;43.80;;;;;;5041214;28;43458;-69
2022/01/06 06:21:00;;;;;;;3.78;1.73;;;20.30;43.70;;;;;;5058209;28;43575;-67
2022/01/06 06:23:28;;;;;;;3.40;1.60;;;20.30;43.80;;;;;;5074482;28;45567;-68
2022/01/06 06:25:55;;;;;;;2.78;1.50;;;20.30;43.80;;;;;;5041133;28;43429;-66
2022/01/06 06:28:23;;;;;;;3.35;1.52;;;20.30;43.90;;;;;;5041464;28;43439;-69
2022/01/06 06:30:50;;;;;;;3.15;1.58;;;20.30;43.90;;;;;;5075905;27;43491;-69
2022/01/06 06:33:17;;;;;;;3.20;1.45;;;20.30;43.90;;;;;;5077909;28;44661;-66
2022/01/06 06:35:45;;;;;;;2.47;1.55;;;20.30;43.90;;;;;;5042804;28;43411;-69
2022/01/06 06:38:12;;;;;;;3.10;1.48;;;20.30;43.80;;;;;;5078695;28;43659;-68
2022/01/06 06:40:40;;;;;;;3.53;1.65;;;20.30;43.90;;;;;;5078121;28;43482;-69
2022/01/06 06:43:14;;;;;;;3.40;1.65;;;20.20;43.90;;;;;;5027454;28;45431;-68
2022/01/06 06:45:42;;;;;;;2.28;1.58;;;20.20;43.90;;;;;;5043677;28;44749;-68
2022/01/06 06:48:11;;;;;;;3.65;1.70;;;20.20;43.90;;;;;;5044662;28;43411;-67
2022/01/06 06:50:39;;;;;;;3.08;1.65;;;20.20;43.80;;;;;;5060723;28;43680;-69
2022/01/06 06:53:09;;;;;;;2.47;1.65;;;20.20;43.80;;;;;;5045297;28;43638;-67
2022/01/06 06:55:37;;;;;;;3.85;1.92;;;20.20;43.80;;;;;;5043506;28;43410;-67
2022/01/06 06:58:04;;;;;;;3.42;1.55;;;20.20;43.80;;;;;;5078070;28;43463;-67
2022/01/06 07:00:32;;;;;;;2.78;1.42;;;20.20;43.80;;;;;;5077400;28;43530;-67
2022/01/06 07:02:59;;;;;;;2.78;1.70;;;20.20;43.80;;;;;;5077803;28;44087;-67
2022/01/06 07:05:28;;;;;;;2.58;1.65;;;20.20;43.80;;;;;;5043667;28;44363;-68
2022/01/06 07:07:55;;;;;;;3.30;1.60;;;20.20;43.80;;;;;;5061001;28;43536;-67
2022/01/06 07:10:23;;;;;;;2.58;1.48;;;20.20;43.90;;;;;;5078016;28;43528;-68
2022/01/06 07:12:50;;;;;;;4.43;2.10;;;20.20;43.80;;;;;;5077213;28;43928;-67
2022/01/06 07:15:18;;;;;;;2.55;1.58;;;20.20;43.80;;;;;;5045838;28;43479;-67
2022/01/06 07:17:45;;;;;;;2.30;1.50;;;20.20;44.20;;;;;;5044200;28;43566;-68
2022/01/06 07:20:14;;;;;;;3.45;1.95;;;20.20;43.90;;;;;;5067817;28;43543;-66
2022/01/06 07:22:41;;;;;;;3.17;1.52;;;20.20;43.80;;;;;;5076743;28;45354;-67
2022/01/06 07:25:09;;;;;;;3.92;1.80;;;20.20;43.80;;;;;;5044925;28;43417;-66
2022/01/06 07:27:36;;;;;;;2.60;1.40;;;20.20;43.80;;;;;;5043414;28;43451;-67
2022/01/06 07:30:05;;;;;;;2.90;1.83;;;20.20;43.70;;;;;;5076745;28;43524;-67
2022/01/06 07:32:44;;;;;;;2.45;1.52;;;20.20;43.70;;;;;;5026872;28;43927;-66
2022/01/06 07:35:11;;;;;;;3.72;1.63;;;20.20;43.70;;;;;;5076998;28;43496;-68
2022/01/06 07:37:39;;;;;;;3.60;1.75;;;20.20;43.70;;;;;;5077518;28;43546;-67
2022/01/06 07:40:08;;;;;;;3.00;1.50;;;20.30;43.80;;;;;;5077434;28;43501;-66
2022/01/06 07:42:38;;;;;;;2.15;1.50;;;20.20;43.70;;;;;;5042994;28;45409;-67
2022/01/06 07:45:06;;;;;;;3.17;1.50;;;20.20;43.80;;;;;;5043552;28;43363;-69
2022/01/06 07:47:36;;;;;;;3.10;1.80;;;20.20;43.70;;;;;;5043152;28;43458;-67
2022/01/06 07:50:04;;;;;;;3.13;1.40;;;20.30;43.80;;;;;;5067683;28;43531;-68
2022/01/06 07:52:32;;;;;;;2.53;1.58;;;20.30;43.70;;;;;;5041788;28;45655;-67
2022/01/06 07:55:00;;;;;;;4.15;1.60;;;20.30;43.70;;;;;;5041512;28;43421;-66
2022/01/06 07:57:27;;;;;;;2.92;1.65;;;20.30;43.70;;;;;;5076094;28;43456;-68
2022/01/06 07:59:54;;;;;;;2.95;1.60;;;20.30;43.70;;;;;;5069824;28;43496;-67
2022/01/06 08:02:22;;;;;;;2.55;1.60;;;20.30;43.70;;;;;;5076814;28;45301;-66
2022/01/06 08:04:50;;;;;;;3.25;1.65;;;20.30;43.70;;;;;;5042722;28;44368;-67
2022/01/06 08:07:17;;;;;;;3.58;1.63;;;20.30;43.70;;;;;;5077254;28;43967;-67
2022/01/06 08:09:45;;;;;;;2.75;1.70;;;20.30;43.60;;;;;;5082663;27;43506;-66
2022/01/06 08:12:13;;;;;;;3.13;1.60;;;20.30;43.60;;;;;;5076336;28;46229;-67
2022/01/06 08:14:40;;;;;;;2.05;1.60;;;20.30;43.60;;;;;;5042277;28;43584;-68
2022/01/06 08:17:08;;;;;;;3.95;1.80;;;20.30;43.50;;;;;;5075746;28;43527;-67
2022/01/06 08:19:35;;;;;;;4.32;2.03;;;20.40;43.60;;;;;;5043871;28;43486;-67
2022/01/06 08:22:03;;;;;;;5.47;1.88;;;20.30;43.50;;;;;;5076510;28;43955;-68
2022/01/06 08:24:31;;;;;;;4.20;1.75;;;20.30;43.60;;;;;;5076139;28;43457;-67
2022/01/06 08:26:59;;;;;;;4.25;1.55;;;20.30;43.60;;;;;;5042976;28;43478;-67
2022/01/06 08:29:26;;;;;;;2.65;1.75;;;20.40;43.60;;;;;;5076585;28;43461;-64
2022/01/06 08:31:53;;;;;;;10.20;3.53;;;20.40;43.70;;;;;;5042517;28;43967;-67
2022/01/06 08:34:21;;;;;;;8.68;3.75;;;20.20;38.20;;;;;;5076557;28;44934;-66
2022/01/06 08:36:52;;;;;;;6.35;3.28;;;19.90;36.90;;;;;;5076278;28;43431;-65
2022/01/06 08:39:20;;;;;;;6.88;2.75;;;19.70;38.90;;;;;;5042659;28;43503;-66
2022/01/06 08:41:52;;;;;;;11.02;3.00;;;19.60;41.90;;;;;;5042645;28;44677;-67
2022/01/06 08:44:21;;;;;;;15.88;4.50;;;19.60;41.80;;;;;;5041104;28;43490;-68
2022/01/06 08:46:49;;;;;;;8.38;3.10;;;19.70;42.20;;;;;;5074015;28;43522;-68
2022/01/06 08:49:17;;;;;;;14.95;3.10;;;19.70;42.40;;;;;;5076980;28;43521;-69
2022/01/06 08:51:44;;;;;;;12.13;3.42;;;19.80;42.50;;;;;;5076434;28;43942;-69
2022/01/06 08:54:11;;;;;;;9.70;3.13;;;19.80;42.50;;;;;;5039903;28;43412;-69
2022/01/06 08:56:39;;;;;;;8.73;2.83;;;19.80;42.60;;;;;;5059508;28;43543;-69
2022/01/06 08:59:06;;;;;;;10.02;2.95;;;19.80;42.90;;;;;;5038886;28;43569;-67
2022/01/06 09:01:34;;;;;;;10.68;3.28;;;19.90;42.70;;;;;;5042238;28;45848;-68
2022/01/06 09:04:03;;;;;;;8.73;2.85;;;19.90;42.80;;;;;;5040726;28;43478;-69
2022/01/06 09:06:30;;;;;;;5.32;3.08;;;20.00;42.80;;;;;;5073073;27;43466;-67
2022/01/06 09:08:58;;;;;;;7.78;3.42;;;20.00;42.80;;;;;;5032003;28;43509;-68
2022/01/06 09:11:25;;;;;;;10.57;3.85;;;20.00;42.90;;;;;;5064691;28;45369;-68
2022/01/06 09:13:53;;;;;;;9.48;3.25;;;20.00;42.90;;;;;;5042249;28;43539;-69
2022/01/06 09:16:20;;;;;;;7.43;3.90;;;20.10;42.90;;;;;;5070648;28;43610;-66
2022/01/06 09:18:48;;;;;;;8.00;3.28;;;20.10;42.90;;;;;;5040508;28;43530;-66
2022/01/06 09:21:22;;;;;;;8.32;3.78;;;20.10;43.00;;;;;;5040847;28;43732;-67
2022/01/06 09:23:54;;;;;;;6.78;2.78;;;20.10;43.00;;;;;;5042402;28;44104;-67
2022/01/06 09:26:21;;;;;;;6.13;3.00;;;20.20;43.00;;;;;;5075762;28;43415;-69
2022/01/06 09:28:49;;;;;;;7.15;3.13;;;20.20;43.00;;;;;;5042502;28;43469;-69
2022/01/06 09:31:16;;;;;;;6.28;2.92;;;20.10;43.00;;;;;;5075587;28;43935;-70
2022/01/06 09:33:44;;;;;;;5.63;2.70;;;20.20;43.00;;;;;;5076418;28;43558;-68
2022/01/06 09:36:11;;;;;;;8.50;3.05;;;20.20;43.00;;;;;;5075760;28;43459;-68
2022/01/06 09:38:39;;;;;;;5.82;2.97;;;20.20;43.00;;;;;;5059295;28;43510;-70
2022/01/06 09:41:06;;;;;;;5.32;2.60;;;20.30;43.10;;;;;;5043019;28;43853;-69
2022/01/06 09:43:36;;;;;;;7.50;2.88;;;20.30;43.10;;;;;;5041774;28;43981;-66
2022/01/06 09:46:09;;;;;;;5.72;3.05;;;20.30;43.10;;;;;;5041791;28;43455;-68
2022/01/06 09:48:38;;;;;;;5.18;2.63;;;20.30;43.10;;;;;;5076088;28;43546;-69
2022/01/06 09:51:09;;;;;;;4.90;2.80;;;20.30;43.10;;;;;;5041240;28;44028;-68
2022/01/06 09:53:37;;;;;;;7.10;2.67;;;20.30;43.10;;;;;;5041901;28;43509;-69
2022/01/06 09:56:05;;;;;;;6.82;2.85;;;20.30;43.10;;;;;;5038621;28;43418;-67
2022/01/06 09:58:33;;;;;;;4.80;2.92;;;20.40;43.10;;;;;;5076298;28;43465;-69
2022/01/06 10:01:01;;;;;;;4.90;2.63;;;20.40;43.10;;;;;;5041543;28;44467;-69
2022/01/06 10:03:34;;;;;;;5.63;2.30;;;20.40;43.10;;;;;;5072986;28;43536;-69
2022/01/06 10:06:13;;;;;;;4.47;2.53;;;20.40;43.10;;;;;;5077460;27;43470;-69
2022/01/06 10:08:42;;;;;;;6.53;2.72;;;20.40;43.10;;;;;;5045747;28;43451;-67
2022/01/06 10:11:20;;;;;;;5.40;2.78;;;20.40;43.10;;;;;;5079210;28;45422;-67
2022/01/06 10:14:20;;;;;;;4.53;2.38;;;20.40;43.10;;;;;;5044614;28;43455;-68
2022/01/06 10:16:50;;;;;;;5.05;2.65;;;20.40;43.10;;;;;;5070800;28;43522;-69
2022/01/06 10:19:17;;;;;;;5.10;2.40;;;20.50;43.10;;;;;;5079390;28;43495;-66
2022/01/06 10:21:47;;;;;;;4.55;2.28;;;20.50;43.20;;;;;;5046407;28;43565;-67
2022/01/06 10:24:22;;;;;;;4.68;2.40;;;20.50;43.10;;;;;;5045776;28;43382;-68
2022/01/06 10:26:54;;;;;;;6.60;2.63;;;20.50;43.10;;;;;;5045450;28;43606;-68
2022/01/06 10:29:24;;;;;;;4.78;2.33;;;20.50;43.20;;;;;;5045836;28;43486;-66
2022/01/06 10:31:53;;;;;;;6.40;3.13;;;20.60;42.80;;;;;;5044897;28;43944;-66
2022/01/06 10:34:28;;;;;;;4.97;2.30;;;20.60;42.70;;;;;;5040911;28;43488;-70
2022/01/06 10:36:55;;;;;;;8.18;2.60;;;20.60;42.90;;;;;;5076696;28;43419;-66
2022/01/06 10:39:22;;;;;;;4.93;2.10;;;20.60;42.90;;;;;;5046736;28;43444;-66
2022/01/06 10:41:51;;;;;;;5.35;2.30;;;20.60;43.00;;;;;;5044362;28;43938;-68
2022/01/06 10:44:19;;;;;;;6.20;2.53;;;20.60;43.00;;;;;;5044803;28;43402;-69
2022/01/06 10:46:46;;;;;;;5.45;2.50;;;20.60;43.00;;;;;;5076083;28;44059;-66
2022/01/06 10:49:16;;;;;;;5.35;2.25;;;20.60;43.00;;;;;;5043423;28;43597;-68
2022/01/06 10:51:49;;;;;;;4.28;2.22;;;20.60;43.00;;;;;;5065308;28;43917;-66
2022/01/06 10:54:23;;;;;;;3.97;2.15;;;20.70;43.20;;;;;;5072938;28;44695;-68
2022/01/06 10:57:03;;;;;;;3.72;2.10;;;20.70;43.00;;;;;;5076181;28;43578;-69
2022/01/06 10:59:35;;;;;;;4.45;2.25;;;20.70;43.00;;;;;;5075320;28;43534;-71
2022/01/06 11:02:05;;;;;;;5.28;2.20;;;20.70;43.10;;;;;;5073156;28;44691;-70
2022/01/06 11:04:33;;;;;;;3.97;1.98;;;20.80;43.10;;;;;;5039476;28;43552;-69
2022/01/06 11:07:01;;;;;;;6.18;2.55;;;20.80;43.10;;;;;;5075752;28;43529;-68
2022/01/06 11:09:30;;;;;;;5.18;2.30;;;20.80;43.10;;;;;;5042688;28;43677;-69
2022/01/06 11:14:30;;;;;;;4.15;2.00;;;20.90;43.20;;;;;;5075177;28;43596;-67
2022/01/06 11:16:58;;;;;;;3.63;2.05;;;20.90;43.20;;;;;;5040952;28;43551;-71
2022/01/06 11:19:28;;;;;;;5.07;2.00;;;20.90;43.20;;;;;;5059585;28;43700;-69
2022/01/06 11:22:01;;;;;;;5.75;2.38;;;20.90;43.20;;;;;;5040442;28;43897;-71
2022/01/06 11:24:29;;;;;;;3.38;2.10;;;20.90;43.20;;;;;;5075818;28;43501;-68
2022/01/06 11:27:02;;;;;;;4.13;2.05;;;21.00;43.20;;;;;;5041200;28;44031;-70
2022/01/06 11:29:36;;;;;;;6.65;2.25;;;21.00;43.20;;;;;;5092391;27;43489;-67
2022/01/06 11:32:17;;;;;;;4.10;1.98;;;21.00;43.30;;;;;;5057610;28;46277;-69
2022/01/06 11:34:49;;;;;;;5.97;2.22;;;21.00;43.30;;;;;;5043054;28;43582;-68
2022/01/06 11:37:17;;;;;;;4.63;1.98;;;21.00;43.30;;;;;;5040794;28;43451;-66
2022/01/06 11:39:44;;;;;;;5.07;2.15;;;21.10;43.40;;;;;;5076102;28;43491;-67
2022/01/06 11:42:18;;;;;;;4.28;2.20;;;21.10;43.30;;;;;;5041341;28;43809;-67
2022/01/06 11:44:52;;;;;;;4.13;2.10;;;21.10;43.30;;;;;;5041100;28;43543;-68
2022/01/06 11:47:36;;;;;;;4.65;2.33;;;21.10;43.30;;;;;;5039742;28;43460;-69
2022/01/06 11:50:25;;;;;;;3.13;2.00;;;21.20;43.30;;;;;;5074914;28;43526;-69
2022/01/06 11:52:56;;;;;;;2.45;1.70;;;21.20;43.30;;;;;;5073784;28;46895;-68
2022/01/06 11:55:36;;;;;;;4.97;2.33;;;21.20;43.20;;;;;;5041330;28;43612;-70
2022/01/06 11:58:29;;;;;;;3.60;1.90;;;21.20;43.90;;;;;;5041203;28;44020;-71
2022/01/06 12:01:05;;;;;;;5.03;2.17;;;21.30;43.20;;;;;;5037966;28;43504;-69
2022/01/06 12:03:44;;;;;;;4.25;2.10;;;21.30;43.30;;;;;;5034445;28;45308;-69
2022/01/06 12:06:30;;;;;;;2.85;1.80;;;21.30;43.60;;;;;;5073024;28;44364;-69
2022/01/06 12:08:59;;;;;;;2.10;1.63;;;21.30;43.20;;;;;;5041586;28;43485;-67
2022/01/06 12:11:33;;;;;;;4.15;1.90;;;21.30;43.20;;;;;;5074960;28;44043;-69
2022/01/06 12:14:01;;;;;;;3.60;1.95;;;21.40;43.20;;;;;;5073161;28;43947;-70
2022/01/06 12:16:32;;;;;;;3.72;2.10;;;21.40;43.20;;;;;;5057797;28;44348;-69
2022/01/06 12:19:11;;;;;;;3.08;1.80;;;21.40;43.20;;;;;;5041021;28;43467;-68
2022/01/06 12:21:39;;;;;;;4.15;2.10;;;21.40;43.10;;;;;;5040020;28;43543;-68
2022/01/06 12:24:08;;;;;;;2.47;1.98;;;21.50;43.20;;;;;;5074905;28;45834;-67
2022/01/06 12:26:37;;;;;;;2.97;1.90;;;21.50;43.10;;;;;;5057943;28;44368;-69
2022/01/06 12:29:11;;;;;;;4.20;2.08;;;21.60;43.10;;;;;;5073841;27;43509;-69
2022/01/06 12:31:41;;;;;;;4.15;2.20;;;21.60;43.10;;;;;;5074067;28;43541;-67
2022/01/06 12:34:11;;;;;;;9.93;2.45;;;21.60;43.10;;;;;;5075210;28;44006;-69
2022/01/06 12:36:43;;;;;;;6.47;2.38;;;21.60;43.10;;;;;;5040967;28;43471;-69
2022/01/06 12:39:13;;;;;;;5.90;2.40;;;21.70;43.10;;;;;;5075893;28;43525;-68
2022/01/06 12:41:42;;;;;;;6.03;1.97;;;21.70;43.10;;;;;;5040862;28;43563;-68
2022/01/06 12:44:10;;;;;;;4.22;2.13;;;21.70;43.10;;;;;;5073517;28;44654;-68
2022/01/06 12:46:41;;;;;;;5.18;2.42;;;21.70;43.00;;;;;;5073114;28;43486;-68
2022/01/06 12:49:10;;;;;;;5.35;2.17;;;21.70;43.00;;;;;;5074819;28;43566;-66
2022/01/06 12:51:41;;;;;;;5.30;2.42;;;21.80;43.00;;;;;;5071784;28;43529;-69
2022/01/06 12:54:15;;;;;;;;;;;21.70;42.90;;;;;;5074957;28;47165;-68
2022/01/06 12:56:54;;;;;;;4.35;2.08;;;21.70;42.90;;;;;;5072167;28;44170;-67
2022/01/06 12:59:33;;;;;;;6.13;2.50;;;21.70;42.90;;;;;;5074562;28;43536;-67
2022/01/06 13:02:10;;;;;;;4.43;2.00;;;21.80;42.90;;;;;;5074012;28;43776;-68
2022/01/06 13:04:47;;;;;;;4.32;1.88;;;21.80;42.80;;;;;;5034429;28;46333;-68
2022/01/06 13:07:16;;;;;;;5.43;2.30;;;21.80;42.80;;;;;;5071967;28;43537;-68
2022/01/06 13:09:46;;;;;;;4.20;1.95;;;21.80;42.80;;;;;;5024372;28;43472;-68